Time;durP1;ratioP1;P1;durP2;ratioP2;P2;SDS_P1;SDS_P2;PMS_P1;PMS_P2;Temp;Humidity;BMP_temperature;BMP_pressure;BME280_temperature;BME280_humidity;BME280_pressure;Samples;Min_cycle;Max_cycle;Signal;HPM_P1;HPM_P2
2023/12/09 00:01:17;;;;;;;51.55;25.85;;;;;;;3.22;100.00;99605.63;5085063;28;20023;-75
2023/12/09 00:03:42;;;;;;;43.28;23.33;;;;;;;3.33;100.00;99600.06;5086652;28;20027;-76
2023/12/09 00:06:08;;;;;;;46.50;22.67;;;;;;;3.32;100.00;99601.16;5097666;28;20027;-76
2023/12/09 00:08:34;;;;;;;47.92;23.48;;;;;;;3.37;100.00;99601.13;5106437;28;20118;-75
2023/12/09 00:10:59;;;;;;;47.80;23.10;;;;;;;3.34;100.00;99590.66;5093615;28;20411;-75
2023/12/09 00:13:25;;;;;;;133.27;76.75;;;;;;;3.29;100.00;99580.44;5080053;28;20024;-75
2023/12/09 00:15:50;;;;;;;104.68;59.67;;;;;;;3.27;100.00;99579.09;5085717;28;20035;-76
2023/12/09 00:18:16;;;;;;;60.17;30.48;;;;;;;3.24;100.00;99574.94;5094127;28;20023;-75
2023/12/09 00:20:41;;;;;;;49.35;26.05;;;;;;;3.14;100.00;99586.03;5083935;28;20111;-76
2023/12/09 00:23:07;;;;;;;48.92;25.17;;;;;;;2.90;100.00;99587.53;5073832;28;20500;-76
2023/12/09 00:25:33;;;;;;;58.33;25.50;;;;;;;3.06;100.00;99579.97;5098461;28;20019;-76
2023/12/09 00:27:58;;;;;;;54.53;26.70;;;;;;;3.23;100.00;99587.94;5107526;28;20073;-75
2023/12/09 00:30:24;;;;;;;61.97;24.85;;;;;;;3.18;100.00;99582.44;5079863;28;20016;-76
2023/12/09 00:32:50;;;;;;;55.42;26.30;;;;;;;3.27;100.00;99598.44;5091953;28;20524;-76
2023/12/09 00:35:15;;;;;;;101.15;31.08;;;;;;;3.11;100.00;99592.97;5091662;28;20504;-75
2023/12/09 00:37:41;;;;;;;219.38;92.13;;;;;;;3.23;100.00;99607.28;5091689;28;20389;-76
2023/12/09 00:40:07;;;;;;;147.98;64.25;;;;;;;3.31;100.00;99602.28;5076450;28;20020;-76
2023/12/09 00:42:32;;;;;;;167.23;42.97;;;;;;;3.40;100.00;99608.03;5104624;28;20047;-76
2023/12/09 00:44:58;;;;;;;139.80;32.40;;;;;;;3.42;100.00;99614.97;5110776;28;20063;-76
2023/12/09 00:47:23;;;;;;;143.35;31.30;;;;;;;3.42;100.00;99600.28;5105439;28;20031;-76
2023/12/09 00:49:49;;;;;;;99.55;31.83;;;;;;;3.13;100.00;99612.84;5091876;28;20517;-76
2023/12/09 00:52:14;;;;;;;106.78;32.30;;;;;;;3.16;100.00;99617.00;5111476;28;20015;-76
2023/12/09 00:54:40;;;;;;;143.55;32.17;;;;;;;3.18;100.00;99610.06;5094702;28;20027;-76
2023/12/09 00:57:05;;;;;;;125.00;29.65;;;;;;;3.24;100.00;99616.41;5091386;28;20035;-76
2023/12/09 00:59:31;;;;;;;89.97;31.23;;;;;;;3.18;100.00;99607.31;5090957;28;20031;-76
2023/12/09 01:01:56;;;;;;;92.60;30.58;;;;;;;3.30;100.00;99614.47;5089765;28;20027;-75
2023/12/09 01:04:21;;;;;;;99.55;30.33;;;;;;;3.36;100.00;99602.25;5086695;28;20063;-76
2023/12/09 01:06:47;;;;;;;111.88;31.52;;;;;;;3.41;100.00;99596.72;5084112;28;20028;-76
2023/12/09 01:09:13;;;;;;;101.22;36.28;;;;;;;3.22;100.00;99608.41;5091241;28;20028;-76
2023/12/09 01:11:39;;;;;;;107.78;32.72;;;;;;;3.17;100.00;99613.97;5107026;28;20099;-76
2023/12/09 01:14:05;;;;;;;160.38;37.13;;;;;;;3.32;100.00;99615.00;5074203;28;20126;-75
2023/12/09 01:16:30;;;;;;;118.45;35.05;;;;;;;3.37;100.00;99615.81;5082679;28;20510;-76
2023/12/09 01:18:56;;;;;;;95.75;32.92;;;;;;;3.36;100.00;99616.91;5111467;28;20076;-76
2023/12/09 01:21:21;;;;;;;125.65;36.17;;;;;;;3.23;100.00;99610.03;5096432;28;20096;-76
2023/12/09 01:23:47;;;;;;;102.10;33.95;;;;;;;3.34;100.00;99599.78;5091414;28;20031;-76
2023/12/09 01:26:12;;;;;;;128.02;34.20;;;;;;;3.26;100.00;99605.06;5075602;28;20032;-76
2023/12/09 01:28:38;;;;;;;84.20;31.90;;;;;;;3.30;100.00;99606.16;5111360;28;20063;-75
2023/12/09 01:31:03;;;;;;;87.07;34.05;;;;;;;3.31;100.00;99603.09;5085644;28;20487;-76
2023/12/09 01:33:29;;;;;;;126.53;34.90;;;;;;;3.33;100.00;99602.81;5105628;28;20031;-76
2023/12/09 01:35:54;;;;;;;126.25;32.35;;;;;;;3.15;100.00;99596.84;5090879;28;20056;-76
2023/12/09 01:38:20;;;;;;;146.98;29.83;;;;;;;3.14;100.00;99603.47;5093174;28;20031;-76
2023/12/09 01:40:53;;;;;;;71.10;29.70;;;;;;;2.95;100.00;99601.31;5103418;28;20024;-76
2023/12/09 01:43:18;;;;;;;97.25;30.48;;;;;;;3.12;100.00;99596.56;5102507;28;20100;-75
2023/12/09 01:45:44;;;;;;;150.63;39.40;;;;;;;2.91;100.00;99603.00;5092993;28;20028;-76
2023/12/09 01:48:10;;;;;;;162.50;40.90;;;;;;;2.58;100.00;99596.97;5089758;28;20028;-76
2023/12/09 01:50:35;;;;;;;99.28;34.33;;;;;;;2.78;100.00;99584.25;5110252;28;20477;-76
2023/12/09 01:53:01;;;;;;;151.48;35.45;;;;;;;2.47;100.00;99589.81;5109533;28;20023;-76
2023/12/09 01:55:27;;;;;;;86.95;33.45;;;;;;;2.43;100.00;99572.16;5110963;28;20026;-76
2023/12/09 01:57:53;;;;;;;133.65;35.47;;;;;;;2.49;100.00;99582.06;5094572;28;20024;-75
2023/12/09 02:00:19;;;;;;;116.25;33.13;;;;;;;1.79;100.00;99575.19;5092724;28;20016;-76
2023/12/09 02:02:45;;;;;;;141.32;31.92;;;;;;;1.59;100.00;99589.78;5108097;28;20057;-75
2023/12/09 02:05:12;;;;;;;129.18;34.40;;;;;;;1.96;100.00;99580.44;5092003;28;20492;-75
2023/12/09 02:07:37;;;;;;;130.93;36.65;;;;;;;2.14;100.00;99578.22;5094653;28;20024;-76
2023/12/09 02:10:04;;;;;;;108.22;32.85;;;;;;;2.12;100.00;99563.88;5076276;28;20027;-75
2023/12/09 02:12:45;;;;;;;134.30;29.33;;;;;;;1.93;100.00;99575.44;5109132;28;20024;-76
2023/12/09 02:15:33;;;;;;;136.52;32.03;;;;;;;1.71;100.00;99582.06;5076052;28;20161;-75
2023/12/09 02:18:03;;;;;;;171.55;29.85;;;;;;;1.57;100.00;99583.66;5109156;28;20038;-75
2023/12/09 02:20:29;;;;;;;216.50;30.77;;;;;;;1.47;100.00;99584.47;5097148;28;20574;-76
2023/12/09 02:23:13;;;;;;;231.77;31.40;;;;;;;0.96;100.00;99575.75;5096324;28;20116;-75
2023/12/09 02:25:39;;;;;;;195.23;30.40;;;;;;;0.94;100.00;99577.13;5114536;28;20068;-75
2023/12/09 02:28:17;;;;;;;207.98;29.17;;;;;;;1.08;100.00;99585.72;5098464;28;20072;-75
2023/12/09 02:30:45;;;;;;;229.68;32.47;;;;;;;0.87;100.00;99593.06;5098744;28;20062;-75
2023/12/09 02:33:14;;;;;;;231.63;32.33;;;;;;;0.67;100.00;99580.84;5114486;28;20027;-75
2023/12/09 02:35:43;;;;;;;267.98;34.28;;;;;;;0.81;100.00;99587.53;5113065;28;20408;-75
2023/12/09 02:38:11;;;;;;;281.13;36.72;;;;;;;0.74;100.00;99583.38;5113748;28;20027;-75
2023/12/09 02:40:38;;;;;;;297.48;39.38;;;;;;;0.74;100.00;99588.88;5110481;28;20124;-75
2023/12/09 02:43:04;;;;;;;307.35;40.55;;;;;;;0.39;100.00;99583.69;5103653;28;20047;-75
2023/12/09 02:45:31;;;;;;;288.48;37.63;;;;;;;0.30;100.00;99584.44;5114042;28;20051;-75
2023/12/09 02:47:56;;;;;;;273.58;37.33;;;;;;;0.52;100.00;99587.09;5099826;28;20031;-75
2023/12/09 02:50:22;;;;;;;271.25;37.03;;;;;;;0.36;100.00;99598.00;5094946;28;20107;-76
2023/12/09 02:52:47;;;;;;;208.95;33.20;;;;;;;0.00;100.00;99597.72;5091544;28;20051;-76
2023/12/09 02:55:13;;;;;;;199.73;33.42;;;;;;;-0.13;100.00;99598.13;5093718;28;20423;-76
2023/12/09 02:57:38;;;;;;;166.13;33.33;;;;;;;-0.24;100.00;99603.53;5093668;28;20051;-75
2023/12/09 03:00:06;;;;;;;183.45;32.33;;;;;;;-0.67;100.00;99591.53;5077992;28;20129;-76
2023/12/09 03:02:31;;;;;;;138.18;33.17;;;;;;;-0.85;100.00;99594.34;5113818;28;20121;-75
2023/12/09 03:04:58;;;;;;;151.45;35.42;;;;;;;-1.17;100.00;99607.94;5113897;28;20043;-75
2023/12/09 03:07:23;;;;;;;154.07;32.35;;;;;;;-1.10;100.00;99597.59;5104401;28;20050;-75
2023/12/09 03:09:49;;;;;;;118.90;30.95;;;;;;;-1.09;100.00;99598.44;5075197;28;20485;-75
2023/12/09 03:12:15;;;;;;;177.95;32.20;;;;;;;-1.24;100.00;99610.88;5110480;28;20024;-75
2023/12/09 03:14:41;;;;;;;165.02;33.70;;;;;;;-1.39;100.00;99606.00;5095698;28;20114;-75
2023/12/09 03:17:06;;;;;;;122.72;29.17;;;;;;;-1.26;100.00;99604.81;5111910;28;20095;-75
2023/12/09 03:19:32;;;;;;;142.38;32.45;;;;;;;-1.19;100.00;99610.13;5113638;28;20408;-75
2023/12/09 03:21:59;;;;;;;100.82;30.58;;;;;;;-1.17;100.00;99613.44;5076808;28;20055;-76
2023/12/09 03:24:25;;;;;;;102.93;29.67;;;;;;;-1.02;100.00;99612.81;5074313;28;20032;-75
2023/12/09 03:26:51;;;;;;;102.43;29.80;;;;;;;-1.04;100.00;99612.22;5096626;28;20020;-75
2023/12/09 03:29:17;;;;;;;86.53;28.73;;;;;;;-1.13;100.00;99615.44;5113566;28;20020;-75
2023/12/09 03:31:43;;;;;;;86.40;27.73;;;;;;;-0.90;100.00;99612.69;5078927;28;20084;-75
2023/12/09 03:34:08;;;;;;;84.53;28.85;;;;;;;-1.02;100.00;99605.41;5074849;28;20032;-75
2023/12/09 03:36:34;;;;;;;93.22;27.75;;;;;;;-1.49;100.00;99601.19;5092630;28;20028;-75
2023/12/09 03:38:59;;;;;;;95.22;30.38;;;;;;;-1.51;100.00;99614.31;5074655;28;20031;-75
2023/12/09 03:41:24;;;;;;;93.53;29.48;;;;;;;-1.40;100.00;99609.81;5083849;28;20043;-75
2023/12/09 03:43:50;;;;;;;70.28;29.50;;;;;;;-1.30;100.00;99604.47;5090758;28;20035;-75
2023/12/09 03:46:15;;;;;;;93.05;29.90;;;;;;;-0.92;100.00;99598.38;5112886;28;20499;-75
2023/12/09 03:48:41;;;;;;;101.55;28.85;;;;;;;-0.65;100.00;99594.84;5075662;28;20035;-75
2023/12/09 03:51:07;;;;;;;106.43;35.10;;;;;;;-0.89;100.00;99589.63;5102747;28;20089;-75
2023/12/09 03:53:32;;;;;;;93.95;30.85;;;;;;;-0.75;100.00;99610.13;5094572;28;20058;-75
2023/12/09 03:55:58;;;;;;;111.22;32.58;;;;;;;-1.06;100.00;99611.66;5112845;28;20035;-75
2023/12/09 03:58:23;;;;;;;98.82;32.85;;;;;;;-1.16;100.00;99615.91;5101082;28;20059;-75
2023/12/09 04:00:49;;;;;;;101.80;32.47;;;;;;;-0.97;100.00;99607.38;5112181;28;20050;-75
2023/12/09 04:03:15;;;;;;;107.93;31.92;;;;;;;-0.66;100.00;99606.91;5112655;28;20411;-75
2023/12/09 04:05:41;;;;;;;114.47;36.63;;;;;;;-0.71;100.00;99614.03;5094455;28;20034;-75
2023/12/09 04:08:07;;;;;;;142.75;39.75;;;;;;;-0.92;100.00;99614.84;5080628;28;20027;-75
2023/12/09 04:10:32;;;;;;;155.93;38.40;;;;;;;-0.98;100.00;99619.44;5097065;28;20061;-75
2023/12/09 04:12:58;;;;;;;147.80;34.40;;;;;;;-0.93;100.00;99624.19;5103266;28;20032;-75
2023/12/09 04:15:23;;;;;;;146.73;33.83;;;;;;;-0.94;100.00;99617.03;5099356;28;20532;-75
2023/12/09 04:17:49;;;;;;;204.07;39.80;;;;;;;-1.09;100.00;99618.47;5101540;28;20032;-75
2023/12/09 04:20:14;;;;;;;186.40;40.80;;;;;;;-0.88;100.00;99624.25;5094374;28;20057;-75
2023/12/09 04:22:40;;;;;;;183.68;42.15;;;;;;;-0.93;100.00;99626.94;5094044;28;20042;-75
2023/12/09 04:25:06;;;;;;;173.10;38.97;;;;;;;-0.73;100.00;99621.66;5112325;28;20031;-75
2023/12/09 04:27:33;;;;;;;163.95;39.75;;;;;;;-0.69;100.00;99607.44;5084959;28;20060;-75
2023/12/09 04:29:59;;;;;;;198.68;43.00;;;;;;;-0.63;100.00;99609.16;5091800;28;20028;-75
2023/12/09 04:32:29;;;;;;;177.50;38.83;;;;;;;-0.61;100.00;99626.19;5110631;28;20027;-75
2023/12/09 04:34:55;;;;;;;161.00;37.53;;;;;;;-0.46;100.00;99615.41;5112108;28;20106;-75
2023/12/09 04:37:22;;;;;;;194.93;36.72;;;;;;;-0.37;100.00;99624.00;5111428;28;20024;-75
2023/12/09 04:39:48;;;;;;;152.15;39.90;;;;;;;-0.37;100.00;99626.75;5112298;28;20041;-75
2023/12/09 04:42:13;;;;;;;161.35;38.83;;;;;;;-0.38;100.00;99624.25;5089866;28;20059;-75
2023/12/09 04:44:39;;;;;;;156.10;38.63;;;;;;;-0.25;100.00;99621.09;5073539;28;20508;-75
2023/12/09 04:47:04;;;;;;;179.23;37.30;;;;;;;-0.17;100.00;99619.81;5091510;28;20034;-75
2023/12/09 04:49:30;;;;;;;214.55;46.03;;;;;;;-0.44;100.00;99632.47;5091339;28;20473;-75
2023/12/09 04:51:55;;;;;;;189.35;44.00;;;;;;;-0.32;100.00;99639.72;5092884;28;20035;-75
2023/12/09 04:54:20;;;;;;;190.18;40.03;;;;;;;-0.29;100.00;99633.72;5099581;28;20024;-75
2023/12/09 04:56:46;;;;;;;145.63;37.50;;;;;;;-0.32;100.00;99637.81;5073761;28;20117;-75
2023/12/09 04:59:11;;;;;;;130.07;39.22;;;;;;;-0.17;100.00;99631.63;5073372;28;20024;-73
2023/12/09 05:01:37;;;;;;;215.68;38.42;;;;;;;-0.24;100.00;99636.53;5106971;28;20038;-74
2023/12/09 05:04:02;;;;;;;161.00;40.75;;;;;;;0.15;100.00;99643.75;5085741;28;20827;-76
2023/12/09 05:06:28;;;;;;;215.00;40.92;;;;;;;-0.03;100.00;99639.47;5086072;28;20037;-76
2023/12/09 05:08:53;;;;;;;147.60;39.65;;;;;;;0.05;100.00;99650.00;5091361;28;20032;-75
2023/12/09 05:11:19;;;;;;;166.57;43.60;;;;;;;0.12;100.00;99647.03;5091301;28;20048;-75
2023/12/09 05:13:44;;;;;;;236.23;46.05;;;;;;;0.05;100.00;99643.66;5103984;28;20031;-75
2023/12/09 05:16:10;;;;;;;211.05;46.10;;;;;;;0.02;100.00;99647.78;5090286;28;20023;-75
2023/12/09 05:18:35;;;;;;;159.20;38.15;;;;;;;0.06;100.00;99645.31;5110510;28;20628;-75
2023/12/09 05:21:01;;;;;;;195.90;41.03;;;;;;;0.00;100.00;99647.22;5092204;28;20478;-75
2023/12/09 05:23:26;;;;;;;218.57;52.05;;;;;;;0.22;100.00;99660.88;5101092;28;20041;-75
2023/12/09 05:25:52;;;;;;;258.13;42.65;;;;;;;0.30;100.00;99662.31;5084935;28;20020;-75
2023/12/09 05:28:18;;;;;;;239.82;45.63;;;;;;;0.26;100.00;99662.03;5103415;28;20028;-76
2023/12/09 05:30:43;;;;;;;238.32;49.08;;;;;;;0.32;100.00;99649.13;5073798;28;20024;-76
2023/12/09 05:33:09;;;;;;;201.02;42.47;;;;;;;0.23;100.00;99664.47;5098491;28;20057;-76
2023/12/09 05:35:35;;;;;;;152.75;32.88;;;;;;;0.22;100.00;99673.81;5074590;28;20035;-75
2023/12/09 05:38:01;;;;;;;251.35;91.07;;;;;;;0.18;100.00;99664.41;5079457;28;20035;-75
2023/12/09 05:40:26;;;;;;;188.48;46.00;;;;;;;0.12;100.00;99669.88;5109225;28;20475;-72
2023/12/09 05:42:51;;;;;;;161.15;35.30;;;;;;;0.00;100.00;99658.22;5064248;28;20516;-72
2023/12/09 05:45:17;;;;;;;158.25;39.75;;;;;;;0.01;100.00;99662.63;5072839;28;20102;-73
2023/12/09 05:47:43;;;;;;;151.02;31.85;;;;;;;-0.08;100.00;99672.44;5059125;28;20059;-74
2023/12/09 05:50:10;;;;;;;219.40;33.47;;;;;;;-0.50;100.00;99687.63;5072693;28;20417;-71
2023/12/09 05:52:35;;;;;;;259.42;39.55;;;;;;;-0.62;100.00;99676.75;5064600;28;20518;-74
2023/12/09 05:55:01;;;;;;;275.73;38.15;;;;;;;-0.87;100.00;99675.34;5079920;28;20029;-71
2023/12/09 05:57:26;;;;;;;175.70;38.67;;;;;;;-0.62;100.00;99671.25;5054711;28;20167;-72
2023/12/09 05:59:52;;;;;;;179.70;49.70;;;;;;;-0.57;100.00;99672.16;5058921;28;20032;-72
2023/12/09 06:02:17;;;;;;;205.77;44.15;;;;;;;-0.55;100.00;99671.91;5074365;28;20028;-75
2023/12/09 06:04:43;;;;;;;234.57;54.08;;;;;;;-0.57;100.00;99677.66;5065956;28;20101;-73
2023/12/09 06:07:08;;;;;;;131.07;45.40;;;;;;;-0.25;100.00;99669.78;5073689;28;20024;-73
2023/12/09 06:09:34;;;;;;;226.00;48.17;;;;;;;-0.55;100.00;99673.81;5069141;28;20032;-73
2023/12/09 06:11:59;;;;;;;218.77;45.10;;;;;;;-0.48;100.00;99668.97;5069906;28;20031;-73
2023/12/09 06:14:25;;;;;;;219.15;53.35;;;;;;;-0.52;100.00;99678.81;5063539;28;20074;-74
2023/12/09 06:16:50;;;;;;;241.05;51.70;;;;;;;-0.52;100.00;99685.13;5073605;28;20417;-73
2023/12/09 06:19:15;;;;;;;226.82;53.42;;;;;;;-0.91;100.00;99685.19;5071900;28;20086;-71
2023/12/09 06:21:41;;;;;;;210.77;48.75;;;;;;;-0.90;100.00;99690.44;5069908;28;20036;-75
2023/12/09 06:24:07;;;;;;;171.82;48.15;;;;;;;-0.78;100.00;99690.31;5064659;28;20028;-75
2023/12/09 06:26:32;;;;;;;145.52;44.53;;;;;;;-1.11;100.00;99688.47;5071529;28;20020;-76
2023/12/09 06:29:01;;;;;;;196.43;61.10;;;;;;;-1.09;100.00;99686.28;5063792;28;20020;-75
2023/12/09 06:31:26;;;;;;;189.40;50.72;;;;;;;-1.06;100.00;99694.88;5066159;28;20100;-74
2023/12/09 06:33:52;;;;;;;186.75;48.67;;;;;;;-1.16;100.00;99692.78;5062577;28;20028;-75
2023/12/09 06:36:17;;;;;;;177.55;70.65;;;;;;;-0.91;100.00;99701.66;5058854;28;20040;-75
2023/12/09 06:38:43;;;;;;;151.27;44.35;;;;;;;-1.14;100.00;99704.38;5051037;28;20082;-75
2023/12/09 06:41:09;;;;;;;130.50;39.47;;;;;;;-1.35;100.00;99700.44;5059667;28;20037;-74
2023/12/09 06:43:34;;;;;;;104.65;39.10;;;;;;;-1.34;100.00;99699.38;5095907;28;20035;-73
2023/12/09 06:46:01;;;;;;;103.60;40.38;;;;;;;-1.18;100.00;99707.84;5100321;28;20055;-72
2023/12/09 06:48:26;;;;;;;97.88;39.80;;;;;;;-1.10;100.00;99701.09;5076137;28;20051;-74
2023/12/09 06:50:52;;;;;;;82.72;37.08;;;;;;;-1.14;100.00;99707.09;5083559;28;20069;-77
2023/12/09 06:53:17;;;;;;;82.00;35.42;;;;;;;-1.05;100.00;99721.25;5077712;28;20055;-76
2023/12/09 06:55:43;;;;;;;76.47;35.22;;;;;;;-1.00;100.00;99720.50;5097856;28;20024;-75
2023/12/09 06:58:08;;;;;;;78.88;37.00;;;;;;;-1.07;100.00;99726.16;5104023;28;20020;-75
2023/12/09 07:00:33;;;;;;;73.47;31.48;;;;;;;-0.78;100.00;99730.69;5099640;28;20032;-76
2023/12/09 07:02:59;;;;;;;71.57;35.00;;;;;;;-0.82;100.00;99729.50;5093562;28;20082;-75
2023/12/09 07:05:26;;;;;;;82.43;35.40;;;;;;;-0.90;100.00;99728.03;5093571;28;20020;-75
2023/12/09 07:07:51;;;;;;;81.57;34.65;;;;;;;-0.75;100.00;99732.91;5080678;28;20056;-75
2023/12/09 07:10:17;;;;;;;70.22;30.98;;;;;;;-0.78;100.00;99734.25;5093243;28;20055;-75
2023/12/09 07:12:45;;;;;;;69.38;32.40;;;;;;;-0.75;100.00;99732.91;5104819;28;20034;-73
2023/12/09 07:15:12;;;;;;;71.32;35.03;;;;;;;-0.73;100.00;99737.06;5113499;28;20107;-76
2023/12/09 07:17:37;;;;;;;93.18;44.67;;;;;;;-0.55;100.00;99740.59;5098607;28;20047;-73
2023/12/09 07:20:17;;;;;;;77.65;39.92;;;;;;;-0.37;100.00;99742.22;5094354;28;20385;-76
2023/12/09 07:22:42;;;;;;;87.00;40.05;;;;;;;-0.61;100.00;99736.97;5089842;28;20031;-73
2023/12/09 07:25:08;;;;;;;82.93;43.42;;;;;;;-0.36;100.00;99723.78;5113454;28;20412;-76
2023/12/09 07:27:33;;;;;;;76.00;38.00;;;;;;;-0.30;100.00;99729.13;5112862;28;20088;-76
2023/12/09 07:30:00;;;;;;;79.05;38.38;;;;;;;-0.18;100.00;99728.97;5113447;28;20388;-75
2023/12/09 07:32:27;;;;;;;78.35;39.10;;;;;;;-0.30;100.00;99720.88;5113338;28;20024;-74
2023/12/09 07:34:52;;;;;;;84.07;42.28;;;;;;;-0.10;100.00;99718.63;5092962;28;20055;-75
2023/12/09 07:37:17;;;;;;;79.25;40.08;;;;;;;0.34;100.00;99725.94;5106980;28;20078;-75
2023/12/09 07:39:43;;;;;;;78.38;39.15;;;;;;;0.28;100.00;99719.56;5110874;28;20100;-76
2023/12/09 07:42:09;;;;;;;81.72;37.92;;;;;;;0.34;100.00;99728.69;5074465;28;20040;-72
2023/12/09 07:44:35;;;;;;;88.80;40.05;;;;;;;0.55;100.00;99724.19;5092527;28;20024;-72
2023/12/09 07:47:00;;;;;;;124.43;72.80;;;;;;;0.73;100.00;99722.16;5074216;28;20074;-72
2023/12/09 07:49:25;;;;;;;140.95;80.03;;;;;;;0.62;100.00;99727.56;5092491;28;20031;-76
2023/12/09 07:51:51;;;;;;;227.25;112.78;;;;;;;0.92;100.00;99733.59;5092263;28;20024;-76
2023/12/09 07:54:16;;;;;;;265.63;136.02;;;;;;;1.21;100.00;99727.69;5092616;28;20024;-74
2023/12/09 07:56:42;;;;;;;205.00;109.10;;;;;;;1.43;100.00;99722.03;5100971;28;20119;-73
2023/12/09 07:59:07;;;;;;;128.65;55.35;;;;;;;1.64;100.00;99733.16;5088424;28;20031;-75
2023/12/09 08:01:33;;;;;;;83.40;37.38;;;;;;;1.62;100.00;99727.09;5104193;28;20039;-73
2023/12/09 08:03:59;;;;;;;78.47;38.03;;;;;;;1.79;100.00;99735.16;5089868;28;20479;-72
2023/12/09 08:06:25;;;;;;;76.53;35.17;;;;;;;1.79;100.00;99724.13;5089597;28;20023;-74
2023/12/09 08:08:51;;;;;;;71.97;30.73;;;;;;;2.11;100.00;99736.91;5092453;28;20465;-76
2023/12/09 08:11:18;;;;;;;55.65;27.45;;;;;;;2.19;100.00;99744.66;5075029;28;20408;-76
2023/12/09 08:13:44;;;;;;;57.40;29.23;;;;;;;2.49;100.00;99740.31;5097795;28;20539;-75
2023/12/09 08:16:10;;;;;;;53.45;27.20;;;;;;;2.67;100.00;99738.94;5088301;28;20099;-75
2023/12/09 08:18:35;;;;;;;47.10;25.17;;;;;;;2.51;100.00;99726.22;5111565;28;20497;-73
2023/12/09 08:21:01;;;;;;;50.13;26.30;;;;;;;2.77;100.00;99737.25;5093381;28;20031;-72
2023/12/09 08:23:27;;;;;;;46.63;25.67;;;;;;;2.75;100.00;99733.94;5112739;28;20087;-72
2023/12/09 08:25:53;;;;;;;50.53;27.67;;;;;;;2.78;100.00;99742.53;5106800;28;20488;-72
2023/12/09 08:28:19;;;;;;;46.22;28.27;;;;;;;2.62;100.00;99725.13;5091865;28;20028;-72
2023/12/09 08:30:46;;;;;;;49.25;28.20;;;;;;;2.48;100.00;99729.53;5073620;28;20032;-72
2023/12/09 08:33:13;;;;;;;55.60;28.83;;;;;;;2.83;100.00;99730.66;5073611;28;20020;-72
2023/12/09 08:35:39;;;;;;;48.15;25.38;;;;;;;3.13;100.00;99731.72;5092550;28;20020;-72
2023/12/09 08:38:04;;;;;;;52.95;28.55;;;;;;;3.14;100.00;99730.63;5092958;28;20433;-72
2023/12/09 08:40:29;;;;;;;44.78;25.60;;;;;;;3.06;100.00;99726.47;5111697;28;20055;-72
2023/12/09 08:42:55;;;;;;;49.67;27.52;;;;;;;3.17;100.00;99724.53;5110097;28;20523;-72
2023/12/09 08:45:20;;;;;;;43.63;25.33;;;;;;;3.27;100.00;99718.16;5091648;28;20381;-72
2023/12/09 08:47:46;;;;;;;42.65;25.55;;;;;;;3.40;100.00;99718.66;5100797;28;20403;-72
2023/12/09 08:50:12;;;;;;;50.78;26.70;;;;;;;3.35;100.00;99711.22;5112048;28;20507;-72
2023/12/09 08:52:38;;;;;;;44.03;24.00;;;;;;;3.59;100.00;99719.72;5093703;28;20034;-72
2023/12/09 08:55:04;;;;;;;46.35;24.60;;;;;;;3.74;100.00;99712.47;5111870;28;20031;-72
2023/12/09 08:57:30;;;;;;;39.78;22.55;;;;;;;3.67;100.00;99695.31;5091722;28;20020;-72
2023/12/09 08:59:55;;;;;;;41.25;22.38;;;;;;;3.84;100.00;99703.28;5110921;28;20488;-72
2023/12/09 09:02:21;;;;;;;45.47;27.77;;;;;;;3.83;100.00;99702.47;5111686;28;20484;-72
2023/12/09 09:04:47;;;;;;;44.95;23.33;;;;;;;3.75;100.00;99698.34;5111794;28;20619;-72
2023/12/09 09:07:13;;;;;;;52.47;27.85;;;;;;;3.98;100.00;99697.97;5090843;28;20030;-72
2023/12/09 09:09:39;;;;;;;60.33;31.23;;;;;;;4.09;100.00;99671.88;5111614;28;20032;-72
2023/12/09 09:12:06;;;;;;;48.55;26.77;;;;;;;4.13;100.00;99680.44;5111449;28;20051;-72
2023/12/09 09:14:33;;;;;;;44.78;24.02;;;;;;;4.05;100.00;99681.88;5111214;28;20103;-72
2023/12/09 09:16:59;;;;;;;47.97;25.60;;;;;;;4.11;100.00;99675.16;5110030;28;20518;-72
2023/12/09 09:19:25;;;;;;;47.15;26.05;;;;;;;4.21;100.00;99674.28;5091514;28;20088;-72
2023/12/09 09:21:52;;;;;;;39.50;20.50;;;;;;;4.29;100.00;99673.66;5092966;28;20024;-72
2023/12/09 09:24:17;;;;;;;48.53;23.70;;;;;;;4.61;100.00;99665.94;5111458;28;20034;-72
2023/12/09 09:26:43;;;;;;;37.42;19.58;;;;;;;4.53;99.97;99663.81;5111506;28;20024;-72
2023/12/09 09:29:10;;;;;;;45.53;22.48;;;;;;;4.63;100.00;99664.53;5080100;28;20038;-72
2023/12/09 09:31:36;;;;;;;40.33;20.50;;;;;;;4.68;100.00;99665.59;5090950;28;20111;-72
2023/12/09 09:34:01;;;;;;;42.72;23.40;;;;;;;4.98;99.12;99658.94;5084863;28;20034;-72
2023/12/09 09:36:27;;;;;;;37.45;20.80;;;;;;;5.01;98.60;99650.06;5110586;28;20043;-72
2023/12/09 09:38:52;;;;;;;32.33;18.92;;;;;;;5.06;98.91;99661.06;5110354;28;20419;-72
2023/12/09 09:41:27;;;;;;;29.55;18.17;;;;;;;4.98;96.21;99647.03;5110689;28;20496;-72
2023/12/09 09:44:00;;;;;;;36.28;20.50;;;;;;;5.12;96.77;99649.91;5111401;28;20466;-72
2023/12/09 09:46:28;;;;;;;33.45;18.98;;;;;;;5.17;97.51;99647.91;5093231;28;20495;-72
2023/12/09 09:48:55;;;;;;;32.47;19.58;;;;;;;5.39;96.15;99651.31;5072893;28;20115;-72
2023/12/09 09:51:26;;;;;;;31.77;17.63;;;;;;;5.37;94.77;99642.44;5078098;28;20166;-72
2023/12/09 09:54:20;;;;;;;37.70;21.08;;;;;;;5.41;94.96;99644.31;5090950;28;20081;-72
2023/12/09 09:56:45;;;;;;;1567.53;627.08;;;;;;;5.51;95.74;99643.38;5090709;28;20107;-72
2023/12/09 09:59:11;;;;;;;145.07;69.45;;;;;;;5.62;94.10;99638.50;5110577;28;20031;-72
2023/12/09 10:01:37;;;;;;;58.25;31.80;;;;;;;5.60;92.51;99640.75;5110870;28;20026;-75
2023/12/09 10:04:03;;;;;;;469.90;191.30;;;;;;;5.77;94.38;99631.94;5086953;28;20024;-74
2023/12/09 10:06:29;;;;;;;97.07;41.58;;;;;;;5.75;91.37;99632.22;5072536;28;20035;-80
2023/12/09 10:08:55;;;;;;;39.97;19.00;;;;;;;5.65;91.21;99614.91;5099864;28;20027;-74
2023/12/09 10:11:20;;;;;;;30.17;17.95;;;;;;;5.70;90.22;99623.13;5092481;28;20027;-75
2023/12/09 10:13:46;;;;;;;26.13;16.10;;;;;;;5.56;88.83;99618.34;5111015;28;20031;-75
2023/12/09 10:16:12;;;;;;;24.45;13.77;;;;;;;5.67;89.44;99618.19;5106892;28;20492;-76
2023/12/09 10:18:44;;;;;;;39.35;22.77;;;;;;;5.74;90.85;99605.59;5099992;28;20110;-75
2023/12/09 10:21:09;;;;;;;890.50;429.65;;;;;;;5.88;91.36;99614.00;5101486;28;20473;-74
2023/12/09 10:23:35;;;;;;;69.57;35.58;;;;;;;5.94;89.06;99603.66;5106065;28;20027;-76
2023/12/09 10:26:01;;;;;;;50.90;23.50;;;;;;;5.94;90.71;99602.81;5102218;28;20425;-75
2023/12/09 10:28:27;;;;;;;27.27;16.40;;;;;;;5.76;88.85;99608.91;5105668;28;20088;-75
2023/12/09 10:30:52;;;;;;;338.45;113.05;;;;;;;6.06;87.89;99605.19;5103651;28;20412;-75
2023/12/09 10:33:18;;;;;;;193.75;70.00;;;;;;;6.05;89.51;99604.34;5084444;28;20408;-78
2023/12/09 10:35:44;;;;;;;182.90;62.78;;;;;;;6.22;87.80;99592.69;5104374;28;20027;-75
2023/12/09 10:38:09;;;;;;;51.90;23.05;;;;;;;6.35;87.27;99605.00;5082721;28;20036;-74
2023/12/09 10:40:36;;;;;;;34.42;18.95;;;;;;;6.22;87.20;99603.81;5093957;28;20394;-74
2023/12/09 10:43:03;;;;;;;30.40;18.02;;;;;;;6.19;87.92;99596.09;5075679;28;20044;-74
2023/12/09 10:45:28;;;;;;;32.08;18.10;;;;;;;6.15;88.24;99595.03;5093960;28;20024;-72
2023/12/09 10:47:54;;;;;;;30.63;17.20;;;;;;;6.13;86.86;99586.16;5101826;28;20546;-75
2023/12/09 10:50:20;;;;;;;29.05;17.00;;;;;;;5.96;86.93;99583.91;5094578;28;20032;-73
2023/12/09 10:52:45;;;;;;;24.95;16.00;;;;;;;6.13;86.57;99569.50;5099157;28;20037;-74
2023/12/09 10:55:11;;;;;;;24.73;15.18;;;;;;;6.22;86.69;99573.25;5082882;28;20056;-73
2023/12/09 10:57:39;;;;;;;28.40;15.35;;;;;;;6.21;87.32;99574.38;5091041;28;20023;-75
2023/12/09 11:00:10;;;;;;;77.15;34.78;;;;;;;6.43;86.03;99579.28;5075174;28;20627;-71
2023/12/09 11:02:40;;;;;;;84.97;36.35;;;;;;;6.44;87.03;99569.81;5093539;28;20020;-75
2023/12/09 11:05:11;;;;;;;90.15;31.98;;;;;;;6.60;86.95;99572.34;5109034;28;20020;-74
2023/12/09 11:07:39;;;;;;;30.90;16.35;;;;;;;6.65;85.73;99568.63;5094955;28;20031;-75